Time;durP1;ratioP1;P1;durP2;ratioP2;P2;SDS_P1;SDS_P2;PMS_P1;PMS_P2;Temp;Humidity;BMP_temperature;BMP_pressure;BME280_temperature;BME280_humidity;BME280_pressure;Samples;Min_cycle;Max_cycle;Signal;HPM_P1;HPM_P2
2023/12/27 00:00:33;;;;;;;4.73;2.60;;;9.40;99.90;;;;;;936807;149;27428;-89
2023/12/27 00:02:59;;;;;;;3.20;2.60;;;9.40;99.90;;;;;;937143;149;27347;-91
2023/12/27 00:05:26;;;;;;;4.67;2.37;;;9.40;99.90;;;;;;931013;149;28429;-90
2023/12/27 00:07:52;;;;;;;4.10;2.87;;;9.40;99.90;;;;;;928854;151;27406;-90
2023/12/27 00:10:19;;;;;;;3.77;2.67;;;9.40;99.90;;;;;;929064;151;27298;-88
2023/12/27 00:12:45;;;;;;;5.20;2.43;;;9.40;99.90;;;;;;927986;151;27459;-88
2023/12/27 00:15:12;;;;;;;3.43;2.50;;;9.40;99.90;;;;;;929103;151;27751;-89
2023/12/27 00:17:39;;;;;;;3.50;2.33;;;9.30;99.90;;;;;;929041;151;27315;-88
2023/12/27 00:20:05;;;;;;;2.70;2.47;;;9.40;99.90;;;;;;929219;151;27294;-87
2023/12/27 00:22:32;;;;;;;4.73;2.50;;;9.40;99.90;;;;;;928214;151;27361;-87
2023/12/27 00:24:58;;;;;;;2.93;2.37;;;9.40;99.90;;;;;;928845;153;27384;-88
2023/12/27 00:27:25;;;;;;;4.70;2.70;;;9.40;99.90;;;;;;928384;151;27322;-88
2023/12/27 00:29:52;;;;;;;4.13;2.43;;;9.40;99.90;;;;;;928884;151;27339;-86
2023/12/27 00:32:18;;;;;;;2.83;2.37;;;9.40;99.90;;;;;;928385;151;27753;-89
2023/12/27 00:34:47;;;;;;;4.33;2.47;;;9.50;99.90;;;;;;928394;150;27421;-89
2023/12/27 00:37:15;;;;;;;3.83;2.60;;;9.50;99.90;;;;;;928387;151;27305;-91
2023/12/27 01:18:16;;;;;;;2.60;2.33;;;9.50;99.90;;;;;;967747;146;28977;-85
2023/12/27 01:20:42;;;;;;;3.63;2.90;;;10.10;99.90;;;;;;955391;146;27352;-87
2023/12/27 01:23:09;;;;;;;3.67;3.10;;;10.00;99.90;;;;;;956745;146;27338;-83
2023/12/27 01:25:36;;;;;;;3.90;3.07;;;10.00;99.90;;;;;;955824;146;27366;-83
2023/12/27 01:28:02;;;;;;;3.73;2.97;;;9.90;99.90;;;;;;957160;145;27668;-82
2023/12/27 01:30:30;;;;;;;4.37;3.20;;;9.90;99.90;;;;;;957862;146;27385;-84
2023/12/27 01:32:55;;;;;;;3.37;3.07;;;9.80;99.90;;;;;;956321;146;27389;-84
2023/12/27 01:35:22;;;;;;;5.77;3.33;;;9.80;99.90;;;;;;955221;145;27435;-84
2023/12/27 01:37:49;;;;;;;4.53;3.70;;;9.70;99.90;;;;;;954381;146;27435;-84
2023/12/27 01:40:15;;;;;;;5.30;3.50;;;9.60;99.90;;;;;;956101;146;27328;-82
2023/12/27 01:42:42;;;;;;;3.80;3.27;;;9.60;99.90;;;;;;955118;146;27457;-83
2023/12/27 01:45:08;;;;;;;3.60;3.30;;;9.60;99.90;;;;;;955989;146;27337;-81
2023/12/27 01:47:37;;;;;;;4.87;3.23;;;9.50;99.90;;;;;;955943;146;27388;-83
2023/12/27 01:50:02;;;;;;;3.97;2.97;;;9.50;99.90;;;;;;954564;146;27371;-81
2023/12/27 01:52:28;;;;;;;3.57;3.23;;;9.50;99.90;;;;;;956244;146;27316;-82
2023/12/27 01:54:55;;;;;;;4.00;3.10;;;9.40;99.90;;;;;;953671;146;27430;-81
2023/12/27 01:57:21;;;;;;;4.40;3.37;;;9.40;99.90;;;;;;955551;146;27439;-82
2023/12/27 01:59:48;;;;;;;3.20;2.90;;;9.30;99.90;;;;;;956678;146;27456;-81
2023/12/27 02:02:14;;;;;;;5.37;3.03;;;9.30;99.90;;;;;;955523;146;27252;-79
2023/12/27 02:04:41;;;;;;;4.40;2.77;;;9.20;99.90;;;;;;956405;146;27247;-79
2023/12/27 02:07:08;;;;;;;4.43;3.00;;;9.20;99.90;;;;;;958948;146;27306;-84
2023/12/27 02:09:34;;;;;;;3.40;3.10;;;9.10;99.90;;;;;;966781;145;27415;-83
2023/12/27 02:12:01;;;;;;;3.77;3.10;;;9.10;99.90;;;;;;969824;146;27333;-80
2023/12/27 02:14:27;;;;;;;5.27;3.40;;;9.00;99.90;;;;;;967917;144;27346;-80
2023/12/27 02:16:54;;;;;;;3.30;3.03;;;9.00;99.90;;;;;;967518;144;27343;-82
2023/12/27 02:19:23;;;;;;;3.90;3.50;;;9.00;99.90;;;;;;965898;144;27340;-83
2023/12/27 02:21:50;;;;;;;4.03;3.40;;;8.90;99.90;;;;;;966577;144;27455;-83
2023/12/27 02:24:16;;;;;;;3.63;3.33;;;8.90;99.90;;;;;;964784;144;27260;-83
2023/12/27 02:26:43;;;;;;;3.93;3.40;;;8.90;99.90;;;;;;965833;144;27294;-87
2023/12/27 02:29:09;;;;;;;4.47;3.27;;;8.90;99.90;;;;;;964932;144;27348;-84
2023/12/27 02:31:36;;;;;;;3.77;2.90;;;8.90;99.90;;;;;;966137;145;27350;-85
2023/12/27 02:34:03;;;;;;;3.53;3.23;;;8.90;99.90;;;;;;965328;144;27420;-84
2023/12/27 02:36:29;;;;;;;3.73;3.20;;;8.90;99.90;;;;;;965672;144;27267;-85
2023/12/27 02:38:56;;;;;;;3.57;3.10;;;8.90;99.90;;;;;;965455;144;27304;-84
2023/12/27 02:41:22;;;;;;;4.20;3.43;;;9.00;99.90;;;;;;968770;144;27394;-84
2023/12/27 02:43:49;;;;;;;4.00;3.60;;;9.00;99.90;;;;;;966544;144;29152;-84
2023/12/27 02:46:16;;;;;;;3.30;3.00;;;9.00;99.90;;;;;;966007;144;27337;-84
2023/12/27 02:48:42;;;;;;;3.50;3.20;;;9.00;99.90;;;;;;967318;145;27305;-84
2023/12/27 02:51:09;;;;;;;3.43;3.17;;;9.00;99.90;;;;;;965040;144;27367;-87
2023/12/27 02:53:35;;;;;;;3.93;3.53;;;9.00;99.90;;;;;;966142;144;27330;-87
2023/12/27 02:56:02;;;;;;;3.83;3.20;;;9.00;99.90;;;;;;965655;144;27299;-83
2023/12/27 02:58:29;;;;;;;7.33;3.37;;;8.90;99.90;;;;;;964702;144;27371;-84
2023/12/27 03:00:55;;;;;;;4.87;3.13;;;8.90;99.90;;;;;;967487;147;27721;-84
2023/12/27 03:03:22;;;;;;;5.47;3.70;;;8.90;99.90;;;;;;967027;144;27418;-84
2023/12/27 03:05:48;;;;;;;3.83;3.30;;;8.90;99.90;;;;;;966552;144;27253;-84
2023/12/27 03:08:15;;;;;;;5.00;3.67;;;8.90;99.90;;;;;;963132;144;27438;-84
2023/12/27 03:10:41;;;;;;;4.43;4.00;;;8.90;99.90;;;;;;966161;144;27272;-84
2023/12/27 03:13:08;;;;;;;5.30;3.53;;;8.90;99.90;;;;;;966982;144;27355;-84
2023/12/27 03:15:35;;;;;;;3.80;3.40;;;9.00;99.90;;;;;;966794;144;27298;-83
2023/12/27 03:18:01;;;;;;;3.70;3.40;;;9.00;99.90;;;;;;965549;146;27302;-84
2023/12/27 03:20:28;;;;;;;7.63;4.13;;;9.10;99.90;;;;;;964652;144;27238;-84
2023/12/27 03:22:54;;;;;;;4.87;4.27;;;9.10;99.90;;;;;;967511;146;27386;-84
2023/12/27 03:25:21;;;;;;;4.50;3.90;;;9.10;99.90;;;;;;966440;144;27876;-83
2023/12/27 03:27:48;;;;;;;5.47;4.20;;;9.20;99.90;;;;;;968434;144;27410;-88
2023/12/27 03:30:14;;;;;;;5.33;3.90;;;9.30;99.90;;;;;;966034;144;27323;-86
2023/12/27 03:32:41;;;;;;;6.17;4.57;;;9.30;99.90;;;;;;966426;144;27374;-85
2023/12/27 03:35:07;;;;;;;5.03;4.00;;;9.30;99.90;;;;;;964351;144;27335;-85
2023/12/27 03:37:34;;;;;;;5.10;3.90;;;9.30;99.90;;;;;;967031;144;27462;-86
2023/12/27 03:40:00;;;;;;;6.27;4.10;;;9.30;99.90;;;;;;966876;144;27290;-89
2023/12/27 03:42:27;;;;;;;4.23;3.60;;;9.30;99.90;;;;;;965368;144;27327;-84
2023/12/27 03:44:54;;;;;;;4.03;3.30;;;9.30;99.90;;;;;;966050;146;27271;-86
2023/12/27 03:47:20;;;;;;;7.10;3.80;;;9.30;99.90;;;;;;966686;144;27402;-89
2023/12/27 03:49:47;;;;;;;5.17;3.47;;;9.30;99.90;;;;;;964611;144;27439;-88
2023/12/27 03:52:13;;;;;;;4.37;3.40;;;9.20;99.90;;;;;;966344;144;27317;-88
2023/12/27 03:54:40;;;;;;;4.93;3.37;;;9.20;99.90;;;;;;965151;145;27244;-87
2023/12/27 03:57:07;;;;;;;5.17;3.80;;;9.10;99.90;;;;;;962710;147;27410;-89
2023/12/27 03:59:33;;;;;;;4.20;3.53;;;9.20;99.90;;;;;;964300;145;27452;-86
2023/12/27 04:02:00;;;;;;;4.67;3.77;;;9.10;99.90;;;;;;961555;146;27326;-86
2023/12/27 04:04:26;;;;;;;4.10;3.60;;;9.10;99.90;;;;;;960603;145;27254;-86
2023/12/27 04:06:53;;;;;;;5.03;3.57;;;9.10;99.90;;;;;;959805;147;27312;-86
2023/12/27 04:09:19;;;;;;;5.57;3.70;;;9.10;99.90;;;;;;961330;147;27450;-89
2023/12/27 04:11:46;;;;;;;5.20;3.73;;;9.00;99.90;;;;;;962660;145;27358;-89
2023/12/27 04:14:16;;;;;;;5.33;4.10;;;9.00;99.90;;;;;;962334;145;27393;-88
2023/12/27 04:16:43;;;;;;;4.13;3.70;;;9.00;99.90;;;;;;962931;145;27396;-87
2023/12/27 04:19:09;;;;;;;3.60;3.20;;;9.00;99.90;;;;;;962886;145;27366;-87
2023/12/27 04:21:35;;;;;;;5.00;3.70;;;9.00;99.90;;;;;;960721;146;27334;-88
2023/12/27 04:24:02;;;;;;;3.80;3.50;;;9.00;99.90;;;;;;961217;146;27406;-86
2023/12/27 04:26:28;;;;;;;5.10;3.90;;;9.00;99.90;;;;;;962218;145;27687;-84
2023/12/27 04:28:55;;;;;;;5.20;4.37;;;9.00;99.90;;;;;;961969;146;27434;-85
2023/12/27 04:31:22;;;;;;;4.40;3.53;;;9.00;99.90;;;;;;962471;146;27635;-86
2023/12/27 04:33:48;;;;;;;5.43;3.83;;;9.00;99.90;;;;;;960950;145;27391;-87
2023/12/27 04:36:15;;;;;;;3.40;3.10;;;9.00;99.90;;;;;;961835;145;27407;-87
2023/12/27 04:38:41;;;;;;;4.67;3.77;;;9.10;99.90;;;;;;959222;144;27381;-85
2023/12/27 04:41:11;;;;;;;4.20;3.80;;;9.10;99.90;;;;;;961295;146;27439;-86
2023/12/27 04:43:37;;;;;;;4.47;3.70;;;9.10;99.90;;;;;;961454;145;27329;-86
2023/12/27 04:46:06;;;;;;;4.37;3.93;;;9.10;99.90;;;;;;963700;145;27324;-88
2023/12/27 04:48:31;;;;;;;4.17;3.77;;;9.10;99.90;;;;;;962044;144;27328;-86
2023/12/27 04:50:57;;;;;;;5.00;3.50;;;9.00;99.90;;;;;;961590;146;27328;-87
2023/12/27 04:53:24;;;;;;;5.17;3.60;;;9.00;99.90;;;;;;962761;147;27442;-87
2023/12/27 04:55:50;;;;;;;5.87;3.70;;;9.00;99.90;;;;;;961657;145;27245;-89
2023/12/27 04:58:17;;;;;;;8.50;4.10;;;9.00;99.90;;;;;;961750;146;27348;-87
2023/12/27 05:00:44;;;;;;;5.53;4.10;;;9.00;99.90;;;;;;962827;146;27314;-88
2023/12/27 05:03:10;;;;;;;4.83;3.30;;;8.90;99.90;;;;;;960062;145;27329;-87
2023/12/27 05:05:37;;;;;;;5.67;3.70;;;8.90;99.90;;;;;;963444;145;27260;-86
2023/12/27 05:08:03;;;;;;;5.80;4.50;;;8.90;99.90;;;;;;962775;145;27495;-89
2023/12/27 05:10:30;;;;;;;3.90;3.40;;;8.80;99.90;;;;;;961333;146;27307;-86
2023/12/27 05:12:56;;;;;;;3.73;3.40;;;8.80;99.90;;;;;;961768;146;27340;-87
2023/12/27 05:15:23;;;;;;;3.77;3.37;;;8.80;99.90;;;;;;960673;145;27386;-89
2023/12/27 05:17:50;;;;;;;4.03;3.67;;;8.80;99.90;;;;;;961257;145;27654;-88
2023/12/27 05:20:16;;;;;;;4.07;3.77;;;8.80;99.90;;;;;;963592;145;27323;-85
2023/12/27 05:22:44;;;;;;;5.07;4.03;;;8.80;99.90;;;;;;966103;143;27428;-89
2023/12/27 05:25:09;;;;;;;3.53;3.20;;;8.80;99.90;;;;;;964618;144;27376;-90
2023/12/27 05:27:36;;;;;;;4.70;3.33;;;8.90;99.90;;;;;;963356;144;27432;-89
2023/12/27 05:30:03;;;;;;;4.07;3.67;;;9.00;99.90;;;;;;965382;146;27272;-87
2023/12/27 05:32:29;;;;;;;4.10;3.37;;;9.00;99.90;;;;;;962960;144;27362;-86
2023/12/27 05:34:56;;;;;;;6.50;3.37;;;9.00;99.90;;;;;;966317;144;27367;-90
2023/12/27 05:37:22;;;;;;;7.17;3.37;;;9.10;99.90;;;;;;964433;147;27418;-88
2023/12/27 05:39:49;;;;;;;3.40;3.17;;;9.20;99.90;;;;;;962919;144;27290;-89
2023/12/27 05:42:15;;;;;;;4.97;3.13;;;9.20;99.90;;;;;;966611;143;27259;-89
2023/12/27 05:44:42;;;;;;;4.50;3.40;;;9.30;99.90;;;;;;964598;143;27326;-89
2023/12/27 05:47:09;;;;;;;5.07;2.93;;;9.30;99.90;;;;;;965124;144;27376;-84
2023/12/27 05:49:35;;;;;;;5.53;3.43;;;9.40;99.90;;;;;;964869;147;27296;-85
2023/12/27 05:52:03;;;;;;;3.90;3.27;;;9.50;99.90;;;;;;964284;144;27326;-85
2023/12/27 05:54:28;;;;;;;4.53;2.57;;;9.50;99.90;;;;;;962407;144;27456;-83
2023/12/27 05:56:55;;;;;;;3.10;2.80;;;9.60;99.90;;;;;;963793;146;28310;-83
2023/12/27 05:59:22;;;;;;;6.37;3.40;;;9.60;99.90;;;;;;966374;144;27287;-83
2023/12/27 06:01:49;;;;;;;3.70;2.90;;;9.70;99.90;;;;;;965226;144;27304;-84
2023/12/27 06:04:15;;;;;;;4.60;2.70;;;9.70;99.90;;;;;;963825;145;27339;-83
2023/12/27 06:06:41;;;;;;;2.83;2.50;;;9.80;99.90;;;;;;964418;144;27330;-85
2023/12/27 06:09:08;;;;;;;6.17;3.00;;;9.80;99.90;;;;;;964032;144;27449;-86
2023/12/27 06:11:34;;;;;;;5.40;2.80;;;9.90;99.90;;;;;;962053;144;27276;-90
2023/12/27 06:14:01;;;;;;;3.53;2.73;;;9.90;99.90;;;;;;963571;144;27263;-87
2023/12/27 06:16:28;;;;;;;3.70;2.90;;;10.00;99.90;;;;;;964689;144;27432;-85
2023/12/27 06:18:56;;;;;;;4.67;2.80;;;10.00;99.90;;;;;;965243;143;27281;-86
2023/12/27 06:21:21;;;;;;;5.87;2.97;;;10.10;99.90;;;;;;959764;146;27395;-85
2023/12/27 06:23:47;;;;;;;3.33;2.60;;;10.10;99.90;;;;;;964564;145;27232;-85
2023/12/27 06:26:14;;;;;;;3.70;2.73;;;10.10;99.90;;;;;;962588;145;27344;-85
2023/12/27 06:28:41;;;;;;;3.10;2.80;;;10.20;99.90;;;;;;961877;145;27451;-85
2023/12/27 06:31:07;;;;;;;3.17;2.33;;;10.20;99.90;;;;;;959959;145;27263;-85
2023/12/27 06:33:34;;;;;;;4.10;2.90;;;10.20;99.90;;;;;;961940;145;27274;-83
2023/12/27 06:36:00;;;;;;;3.47;2.53;;;10.20;99.90;;;;;;960616;145;27326;-84
2023/12/27 06:38:27;;;;;;;3.70;2.90;;;10.30;99.90;;;;;;960600;145;27398;-83
2023/12/27 06:40:54;;;;;;;3.63;2.60;;;10.30;99.90;;;;;;960381;145;27346;-83
2023/12/27 06:43:21;;;;;;;3.53;2.93;;;10.30;99.90;;;;;;962111;145;27285;-83
2023/12/27 06:45:47;;;;;;;3.90;2.80;;;10.30;99.90;;;;;;962708;145;27385;-84
2023/12/27 06:48:13;;;;;;;5.87;3.60;;;10.40;99.90;;;;;;962081;145;27451;-83
2023/12/27 06:50:40;;;;;;;5.97;3.53;;;10.40;99.90;;;;;;961795;145;27271;-84
2023/12/27 06:53:06;;;;;;;4.00;3.07;;;10.40;99.90;;;;;;960106;143;27295;-84
2023/12/27 06:55:33;;;;;;;5.07;3.40;;;10.40;99.90;;;;;;963829;145;27255;-83
2023/12/27 06:58:00;;;;;;;3.27;2.87;;;10.50;99.90;;;;;;963035;146;27354;-82
2023/12/27 07:00:28;;;;;;;3.47;3.03;;;10.50;99.90;;;;;;960230;145;27312;-85
2023/12/27 07:02:53;;;;;;;4.63;3.20;;;10.50;99.90;;;;;;960347;145;27387;-83
2023/12/27 07:05:19;;;;;;;3.30;3.00;;;10.50;99.90;;;;;;959614;145;27306;-87
2023/12/27 07:07:46;;;;;;;5.40;2.97;;;10.60;99.90;;;;;;961321;145;27329;-85
2023/12/27 07:10:13;;;;;;;4.97;3.00;;;10.60;99.90;;;;;;959901;145;27318;-85
2023/12/27 07:12:39;;;;;;;5.43;2.90;;;10.60;99.90;;;;;;961696;145;27352;-85
2023/12/27 07:15:07;;;;;;;3.33;2.83;;;10.60;99.90;;;;;;961146;145;27253;-83
2023/12/27 07:17:32;;;;;;;3.67;3.00;;;10.70;99.90;;;;;;962053;145;27412;-83
2023/12/27 07:20:00;;;;;;;6.17;2.90;;;10.70;99.90;;;;;;961489;145;27355;-83
2023/12/27 07:22:26;;;;;;;4.20;3.00;;;10.70;99.90;;;;;;960876;145;27352;-85
2023/12/27 07:24:52;;;;;;;3.17;2.83;;;10.70;99.90;;;;;;962166;145;27401;-83
2023/12/27 07:27:19;;;;;;;4.80;3.17;;;10.70;99.90;;;;;;962201;145;27323;-82
2023/12/27 07:29:45;;;;;;;3.13;2.93;;;10.80;99.90;;;;;;960962;145;27290;-82
2023/12/27 07:32:12;;;;;;;4.00;2.87;;;10.80;99.90;;;;;;961399;145;27342;-83
2023/12/27 07:34:38;;;;;;;4.67;3.20;;;10.80;99.90;;;;;;961523;145;27275;-82
2023/12/27 07:37:05;;;;;;;3.77;2.80;;;10.80;99.90;;;;;;960754;145;27301;-82
2023/12/27 07:39:34;;;;;;;4.63;3.00;;;10.80;99.90;;;;;;960946;145;27310;-83
2023/12/27 07:41:58;;;;;;;3.00;2.70;;;10.90;99.90;;;;;;961529;145;27334;-82
2023/12/27 07:44:26;;;;;;;4.40;2.47;;;10.90;99.90;;;;;;961351;145;27243;-81
2023/12/27 07:46:52;;;;;;;4.07;2.90;;;10.90;99.90;;;;;;961851;145;27430;-82
2023/12/27 07:49:18;;;;;;;4.67;2.90;;;10.90;99.90;;;;;;959352;145;27280;-82
2023/12/27 07:51:45;;;;;;;3.87;2.70;;;10.90;99.90;;;;;;960854;146;27313;-84
2023/12/27 07:54:11;;;;;;;2.73;2.53;;;10.90;99.90;;;;;;959544;146;27334;-81
2023/12/27 07:56:38;;;;;;;3.73;2.70;;;11.00;99.90;;;;;;960287;145;27279;-83
2023/12/27 07:59:04;;;;;;;2.50;2.30;;;11.00;99.90;;;;;;961206;145;27228;-83
2023/12/27 08:01:31;;;;;;;2.50;2.30;;;11.00;99.90;;;;;;960855;146;27287;-85
2023/12/27 08:03:58;;;;;;;2.67;2.30;;;11.00;99.90;;;;;;959023;147;27403;-83
2023/12/27 08:06:24;;;;;;;2.67;2.47;;;11.10;99.90;;;;;;960447;146;27306;-83
2023/12/27 08:08:51;;;;;;;2.83;2.30;;;11.10;99.90;;;;;;960261;145;27303;-85
2023/12/27 08:11:17;;;;;;;3.20;2.50;;;11.10;99.90;;;;;;960393;144;27258;-86
2023/12/27 08:13:44;;;;;;;4.93;2.60;;;11.20;99.90;;;;;;959360;145;27346;-87
2023/12/27 08:16:10;;;;;;;4.50;2.30;;;11.20;99.90;;;;;;962056;145;27313;-87
2023/12/27 08:18:37;;;;;;;3.10;2.10;;;11.20;99.90;;;;;;962292;145;27279;-86
2023/12/27 08:21:04;;;;;;;4.57;2.70;;;11.30;99.90;;;;;;960636;147;27427;-86
2023/12/27 08:23:30;;;;;;;4.33;2.70;;;11.30;99.90;;;;;;962750;144;27263;-85
2023/12/27 08:25:57;;;;;;;2.57;2.30;;;11.30;99.90;;;;;;963276;144;27736;-86
2023/12/27 08:28:23;;;;;;;4.47;2.80;;;11.30;99.90;;;;;;965881;143;27375;-87
2023/12/27 08:30:50;;;;;;;2.53;2.20;;;11.30;99.90;;;;;;965934;147;27361;-86
2023/12/27 08:33:17;;;;;;;2.87;2.60;;;11.30;99.90;;;;;;963438;144;27364;-86
2023/12/27 08:35:43;;;;;;;3.40;2.30;;;11.40;99.90;;;;;;965696;143;27330;-87
2023/12/27 08:38:10;;;;;;;2.80;2.60;;;11.40;99.90;;;;;;963615;144;27680;-87
2023/12/27 08:40:36;;;;;;;4.87;2.70;;;11.40;99.90;;;;;;962123;143;27256;-86
2023/12/27 08:43:03;;;;;;;3.47;2.43;;;11.40;99.90;;;;;;962683;144;27262;-86
2023/12/27 08:45:29;;;;;;;2.87;2.57;;;11.40;99.90;;;;;;965925;145;27339;-86
2023/12/27 08:47:56;;;;;;;2.97;2.60;;;11.50;99.90;;;;;;963533;144;27452;-86
2023/12/27 08:50:23;;;;;;;4.23;2.60;;;11.50;99.90;;;;;;963594;144;27287;-86
2023/12/27 08:52:49;;;;;;;2.77;2.50;;;11.50;99.90;;;;;;963919;144;27324;-86
2023/12/27 08:55:16;;;;;;;3.03;2.33;;;11.60;99.90;;;;;;963496;146;27314;-85
2023/12/27 08:57:42;;;;;;;2.60;2.40;;;11.60;99.90;;;;;;966274;144;27406;-88
2023/12/27 09:00:10;;;;;;;2.90;2.70;;;11.70;99.90;;;;;;963769;144;27345;-86
2023/12/27 09:02:36;;;;;;;5.67;2.70;;;11.70;99.90;;;;;;960756;145;27281;-86
2023/12/27 09:05:02;;;;;;;2.75;2.55;;;11.80;99.90;;;;;;963578;146;27314;-87
2023/12/27 09:07:30;;;;;;;2.65;2.45;;;11.80;99.90;;;;;;964960;144;27412;-86
2023/12/27 09:09:55;;;;;;;2.65;2.45;;;11.80;99.90;;;;;;961732;144;27373;-86
2023/12/27 09:12:22;;;;;;;3.60;2.33;;;11.90;99.90;;;;;;965112;146;27284;-84
2023/12/27 09:14:49;;;;;;;2.67;2.43;;;12.00;99.90;;;;;;962258;144;27233;-84
2023/12/27 09:17:15;;;;;;;2.98;2.37;;;12.00;99.90;;;;;;963466;145;27296;-83
2023/12/27 09:19:42;;;;;;;3.08;2.80;;;12.00;99.90;;;;;;965327;144;27306;-82
2023/12/27 09:22:08;;;;;;;3.27;2.97;;;12.10;99.90;;;;;;966556;144;27374;-82
2023/12/27 09:24:35;;;;;;;4.20;2.97;;;12.10;99.90;;;;;;964253;144;27351;-82
2023/12/27 09:27:02;;;;;;;3.37;3.07;;;12.20;99.90;;;;;;962558;144;27291;-82
2023/12/27 09:29:28;;;;;;;3.40;2.80;;;12.30;99.90;;;;;;967378;146;27357;-81
2023/12/27 09:31:55;;;;;;;4.17;3.00;;;12.30;99.90;;;;;;964928;144;27318;-81
2023/12/27 09:34:21;;;;;;;3.03;2.77;;;12.40;99.90;;;;;;964635;144;27340;-83
2023/12/27 09:36:48;;;;;;;3.37;3.07;;;12.50;99.90;;;;;;966044;144;27327;-82
2023/12/27 09:39:15;;;;;;;4.12;2.87;;;12.60;99.90;;;;;;963805;144;27463;-83
2023/12/27 09:41:41;;;;;;;4.07;2.50;;;12.70;99.90;;;;;;964923;147;27327;-82
2023/12/27 09:44:08;;;;;;;2.70;2.30;;;12.70;99.90;;;;;;966065;144;27283;-81
2023/12/27 09:46:34;;;;;;;3.85;2.70;;;12.80;99.90;;;;;;966286;146;27281;-82
2023/12/27 09:49:01;;;;;;;3.42;2.77;;;12.90;99.90;;;;;;965650;144;27243;-82
2023/12/27 09:51:27;;;;;;;3.00;2.70;;;13.00;99.90;;;;;;963705;144;27409;-82
2023/12/27 09:53:54;;;;;;;3.72;2.60;;;13.10;99.90;;;;;;964386;144;27464;-82
2023/12/27 09:56:21;;;;;;;2.95;2.42;;;13.20;99.90;;;;;;963291;144;27808;-82
2023/12/27 09:58:52;;;;;;;3.33;2.83;;;13.30;99.90;;;;;;965650;144;27381;-81
2023/12/27 10:01:19;;;;;;;2.70;2.50;;;13.30;99.90;;;;;;963532;144;27453;-82
2023/12/27 10:03:46;;;;;;;2.52;2.33;;;13.40;99.90;;;;;;962604;144;27343;-81
2023/12/27 10:06:21;;;;;;;2.52;2.33;;;13.50;99.90;;;;;;966918;144;27400;-82
2023/12/27 10:08:48;;;;;;;4.37;2.22;;;13.50;99.90;;;;;;962326;144;27450;-81
2023/12/27 10:11:14;;;;;;;2.72;2.47;;;13.60;99.90;;;;;;962895;144;27347;-81
2023/12/27 10:13:41;;;;;;;3.10;2.33;;;13.70;99.90;;;;;;965650;144;27282;-80
2023/12/27 10:16:07;;;;;;;2.65;2.30;;;13.80;99.90;;;;;;963655;144;27265;-81
2023/12/27 10:18:34;;;;;;;2.72;2.33;;;13.80;99.90;;;;;;963618;144;27298;-83
2023/12/27 10:21:01;;;;;;;2.87;2.22;;;13.90;99.90;;;;;;963019;144;27448;-81
2023/12/27 10:23:27;;;;;;;2.50;2.30;;;14.00;99.90;;;;;;965886;144;27254;-81
2023/12/27 10:25:54;;;;;;;2.72;2.52;;;14.00;99.90;;;;;;964306;144;27329;-82
2023/12/27 10:28:26;;;;;;;2.25;2.00;;;14.00;99.90;;;;;;965448;144;27274;-83
2023/12/27 10:30:53;;;;;;;2.22;2.10;;;14.00;99.90;;;;;;966640;145;27345;-84
2023/12/27 10:33:20;;;;;;;2.98;2.10;;;14.00;99.90;;;;;;966685;144;27256;-84
2023/12/27 10:35:46;;;;;;;2.30;2.05;;;14.00;99.90;;;;;;964996;144;27212;-83
2023/12/27 10:38:12;;;;;;;3.17;2.72;;;14.00;99.90;;;;;;964711;144;27387;-84
2023/12/27 10:40:42;;;;;;;5.62;2.45;;;14.00;99.90;;;;;;964026;144;27333;-84
2023/12/27 10:43:08;;;;;;;2.70;2.50;;;13.90;99.90;;;;;;965083;147;27284;-84
2023/12/27 10:45:35;;;;;;;2.87;2.30;;;13.90;99.90;;;;;;966532;145;27282;-83
2023/12/27 10:48:01;;;;;;;2.52;2.33;;;13.90;99.90;;;;;;963783;145;27755;-83
2023/12/27 10:50:28;;;;;;;3.83;2.50;;;13.90;99.90;;;;;;964657;146;27301;-83
2023/12/27 10:53:03;;;;;;;4.05;2.52;;;13.90;99.90;;;;;;964567;146;27414;-83
2023/12/27 10:55:30;;;;;;;3.30;2.40;;;13.80;99.90;;;;;;966133;146;27282;-83
2023/12/27 10:57:56;;;;;;;2.22;2.02;;;13.90;99.90;;;;;;962234;147;27250;-83
2023/12/27 11:00:23;;;;;;;3.72;2.65;;;13.80;99.90;;;;;;964125;146;27330;-84
2023/12/27 11:02:50;;;;;;;2.87;2.33;;;13.80;99.90;;;;;;962731;146;27348;-83
2023/12/27 11:05:16;;;;;;;3.22;2.55;;;13.80;99.90;;;;;;964427;147;27344;-83
2023/12/27 11:07:43;;;;;;;2.85;2.17;;;13.80;99.90;;;;;;962691;144;27356;-83
2023/12/27 11:10:10;;;;;;;2.55;2.35;;;13.80;99.90;;;;;;964966;144;27423;-83
2023/12/27 11:12:36;;;;;;;2.55;2.35;;;13.90;99.90;;;;;;963108;144;27321;-83
2023/12/27 11:15:02;;;;;;;2.47;2.20;;;13.80;99.90;;;;;;966443;144;27361;-83
2023/12/27 11:17:30;;;;;;;2.50;2.30;;;13.80;99.90;;;;;;962485;147;27446;-83
2023/12/27 11:19:56;;;;;;;3.05;2.40;;;13.80;99.90;;;;;;965478;146;27333;-83
2023/12/27 11:22:23;;;;;;;2.33;2.10;;;13.80;99.90;;;;;;964328;144;27464;-83
2023/12/27 11:24:49;;;;;;;2.80;2.20;;;13.80;99.90;;;;;;948415;144;27304;-83
2023/12/27 11:27:18;;;;;;;2.45;2.12;;;13.80;99.90;;;;;;944744;148;27350;-83
2023/12/27 11:29:45;;;;;;;2.72;2.02;;;13.80;99.90;;;;;;944111;148;27338;-83
2023/12/27 11:32:12;;;;;;;2.42;1.77;;;13.80;99.90;;;;;;943593;145;27313;-83
2023/12/27 11:34:38;;;;;;;3.58;2.12;;;13.80;99.90;;;;;;945196;148;27325;-83
2023/12/27 11:37:05;;;;;;;1.90;1.70;;;13.80;99.90;;;;;;944295;145;27775;-80
2023/12/27 11:39:31;;;;;;;2.67;1.92;;;13.90;99.90;;;;;;943471;146;27781;-82
2023/12/27 11:42:00;;;;;;;2.80;2.12;;;13.90;99.90;;;;;;943099;148;27320;-83
2023/12/27 11:44:24;;;;;;;2.25;2.00;;;13.90;99.90;;;;;;943245;145;27440;-83
2023/12/27 11:46:51;;;;;;;2.67;1.87;;;13.90;99.90;;;;;;940412;145;27329;-83
2023/12/27 11:49:21;;;;;;;2.33;2.12;;;14.00;99.90;;;;;;943648;148;27312;-83
2023/12/27 11:51:47;;;;;;;2.17;1.98;;;14.00;99.90;;;;;;943758;148;27283;-82
2023/12/27 11:54:20;;;;;;;1.52;1.42;;;14.00;99.90;;;;;;943070;148;27330;-82
2023/12/27 11:56:46;;;;;;;2.02;1.77;;;14.00;99.90;;;;;;943895;148;28066;-82
2023/12/27 11:59:13;;;;;;;1.60;1.50;;;14.10;99.90;;;;;;944609;148;27256;-83
2023/12/27 12:01:42;;;;;;;1.80;1.70;;;14.10;99.90;;;;;;942177;148;27301;-83
2023/12/27 12:04:27;;;;;;;1.60;1.50;;;14.20;99.90;;;;;;944145;148;27333;-82
2023/12/27 12:07:09;;;;;;;2.62;1.77;;;14.20;99.90;;;;;;942732;148;27415;-83
2023/12/27 12:09:38;;;;;;;1.60;1.50;;;14.30;99.90;;;;;;943492;148;27401;-82
2023/12/27 12:12:17;;;;;;;1.82;1.52;;;14.30;99.90;;;;;;944323;148;27330;-83
2023/12/27 12:14:43;;;;;;;1.77;1.57;;;14.40;99.90;;;;;;945186;148;27346;-83
2023/12/27 12:17:10;;;;;;;1.92;1.60;;;14.40;99.90;;;;;;942687;148;27417;-82
2023/12/27 12:19:37;;;;;;;1.50;1.40;;;14.40;99.90;;;;;;943539;147;27252;-83
2023/12/27 12:22:03;;;;;;;1.50;1.40;;;14.50;99.90;;;;;;944615;148;27281;-83
2023/12/27 12:24:30;;;;;;;1.45;1.30;;;14.50;99.90;;;;;;949273;147;27379;-83
2023/12/27 12:26:57;;;;;;;1.50;1.40;;;14.60;99.90;;;;;;961329;145;27342;-83
2023/12/27 12:29:26;;;;;;;1.55;1.45;;;14.60;99.90;;;;;;961588;145;27233;-83
2023/12/27 12:31:54;;;;;;;1.70;1.60;;;14.70;99.90;;;;;;961611;145;27319;-83
2023/12/27 12:34:19;;;;;;;2.35;1.70;;;14.80;99.90;;;;;;958489;147;27340;-83
2023/12/27 12:36:45;;;;;;;1.50;1.40;;;14.80;99.90;;;;;;963238;146;27756;-83
2023/12/27 12:39:13;;;;;;;1.40;1.30;;;14.90;99.90;;;;;;959657;146;27267;-83
2023/12/27 12:41:39;;;;;;;1.20;1.20;;;15.00;99.90;;;;;;958877;145;27253;-83
2023/12/27 12:44:06;;;;;;;1.40;1.30;;;15.00;99.90;;;;;;960477;147;27280;-83
2023/12/27 12:46:32;;;;;;;1.27;1.20;;;15.00;99.70;;;;;;960382;145;27319;-82
2023/12/27 12:48:58;;;;;;;1.27;1.20;;;15.10;99.40;;;;;;961667;146;27337;-82
2023/12/27 12:51:26;;;;;;;1.50;1.30;;;15.10;99.10;;;;;;961460;145;27246;-83
2023/12/27 12:53:51;;;;;;;1.00;1.00;;;15.10;98.80;;;;;;960433;147;27260;-83
2023/12/27 12:56:19;;;;;;;1.52;1.30;;;15.10;98.50;;;;;;962028;147;27335;-83
2023/12/27 12:58:45;;;;;;;0.93;0.93;;;15.10;98.20;;;;;;960513;145;27384;-83
2023/12/27 13:01:11;;;;;;;1.32;1.22;;;15.10;98.00;;;;;;961746;145;27299;-83
2023/12/27 13:03:38;;;;;;;1.45;1.35;;;15.10;97.70;;;;;;960946;145;27391;-82
2023/12/27 13:06:10;;;;;;;1.57;1.25;;;15.10;97.50;;;;;;962163;145;27299;-82
2023/12/27 13:08:34;;;;;;;1.75;1.40;;;15.10;97.00;;;;;;960764;145;27389;-83
2023/12/27 13:11:01;;;;;;;2.42;2.10;;;15.10;96.90;;;;;;960534;145;27244;-83
2023/12/27 13:13:27;;;;;;;2.42;2.20;;;15.00;97.00;;;;;;962235;146;27277;-82
2023/12/27 13:15:54;;;;;;;1.77;1.40;;;15.00;97.10;;;;;;960520;145;27259;-83
2023/12/27 13:18:20;;;;;;;1.40;1.30;;;14.90;96.40;;;;;;963863;145;27331;-83
2023/12/27 13:20:47;;;;;;;1.25;1.17;;;14.90;96.20;;;;;;961592;145;27232;-82
2023/12/27 13:23:14;;;;;;;2.00;1.80;;;14.90;95.50;;;;;;962240;145;27328;-83
2023/12/27 13:25:40;;;;;;;2.37;1.55;;;14.80;95.30;;;;;;962101;144;27355;-83